createdAt,value
2022-12-18T00:00:34.797Z,33.78
2022-12-18T00:03:05.057Z,35.45
2022-12-18T00:05:35.318Z,25.58
2022-12-18T00:08:09.383Z,37.75
2022-12-18T00:10:39.759Z,37.40
2022-12-18T00:13:10.467Z,64.30
2022-12-18T00:15:41.093Z,40.55
2022-12-18T00:18:13.813Z,31.48
2022-12-18T00:20:46.285Z,46.70
2022-12-18T00:23:16.543Z,28.30
2022-12-18T00:25:46.900Z,32.70
2022-12-18T00:28:17.058Z,40.03
2022-12-18T00:30:47.228Z,36.95
2022-12-18T00:33:17.439Z,27.40
2022-12-18T00:35:47.671Z,28.45
2022-12-18T00:38:17.887Z,37.08
2022-12-18T00:40:50.033Z,27.75
2022-12-18T00:43:20.173Z,27.75
2022-12-18T00:45:50.517Z,39.05
2022-12-18T00:48:20.765Z,28.05
2022-12-18T00:50:51.742Z,26.08
2022-12-18T00:53:22.067Z,24.50
2022-12-18T00:55:52.206Z,30.52
2022-12-18T00:58:22.569Z,20.20
2022-12-18T01:00:52.777Z,29.38
2022-12-18T01:03:22.978Z,20.17
2022-12-18T01:05:53.095Z,57.25
2022-12-18T01:08:23.519Z,56.90
2022-12-18T01:10:53.742Z,28.63
2022-12-18T01:13:23.972Z,30.23
2022-12-18T01:15:54.239Z,27.48
2022-12-18T01:18:24.450Z,23.10
2022-12-18T01:20:54.597Z,28.95
2022-12-18T01:23:27.578Z,24.58
2022-12-18T01:26:05.034Z,26.55
2022-12-18T01:28:35.294Z,28.33
2022-12-18T01:31:18.158Z,38.13
2022-12-18T01:33:52.533Z,40.88
2022-12-18T01:36:27.614Z,26.05
2022-12-18T01:39:00.180Z,27.42
2022-12-18T01:41:52.075Z,48.78
2022-12-18T01:45:02.592Z,39.25
2022-12-18T01:47:45.736Z,28.17
2022-12-18T01:50:28.368Z,18.98
2022-12-18T01:53:07.602Z,31.77
2022-12-18T01:55:53.355Z,24.00
2022-12-18T01:58:32.231Z,33.67
2022-12-18T02:01:02.629Z,18.27
2022-12-18T02:03:32.827Z,31.02
2022-12-18T02:06:41.253Z,30.83
2022-12-18T02:09:35.651Z,40.58
2022-12-18T02:12:34.406Z,30.95
2022-12-18T02:15:16.623Z,25.05
2022-12-18T02:18:02.036Z,31.25
2022-12-18T02:20:46.992Z,23.98
2022-12-18T02:23:40.065Z,24.00
2022-12-18T02:26:28.342Z,27.45
2022-12-18T02:29:11.619Z,24.85
2022-12-18T02:31:48.293Z,24.63
2022-12-18T02:34:20.820Z,25.02
2022-12-18T02:36:52.778Z,22.20
2022-12-18T02:39:25.305Z,22.73
2022-12-18T02:41:55.752Z,28.50
2022-12-18T02:44:25.931Z,23.83
2022-12-18T02:46:56.205Z,18.55
2022-12-18T02:49:47.486Z,23.77
2022-12-18T02:52:45.480Z,31.38
2022-12-18T02:55:24.818Z,25.15
2022-12-18T02:57:59.792Z,25.73
2022-12-18T03:00:49.599Z,36.10
2022-12-18T03:03:31.579Z,39.03
2022-12-18T03:06:10.885Z,28.63
2022-12-18T03:08:46.182Z,27.50
2022-12-18T03:11:16.761Z,27.75
2022-12-18T03:13:57.366Z,23.85
2022-12-18T03:16:31.426Z,30.45
2022-12-18T03:19:10.244Z,36.33
2022-12-18T03:21:46.893Z,21.20
2022-12-18T03:24:20.000Z,23.38
2022-12-18T03:26:53.798Z,24.27
2022-12-18T03:29:40.112Z,24.98
2022-12-18T03:32:22.206Z,21.38
2022-12-18T03:34:55.026Z,20.10
2022-12-18T03:37:25.315Z,21.77
2022-12-18T03:39:55.513Z,18.75
2022-12-18T03:42:25.611Z,35.45
2022-12-18T03:45:04.825Z,35.90
2022-12-18T03:47:42.435Z,40.05
2022-12-18T03:50:33.989Z,20.17
2022-12-18T03:53:48.696Z,25.30
2022-12-18T03:56:21.422Z,26.38
2022-12-18T03:58:54.462Z,24.70
2022-12-18T04:01:30.910Z,23.02
2022-12-18T04:04:03.392Z,23.38
2022-12-18T04:06:33.958Z,28.13
2022-12-18T04:09:05.171Z,26.45
2022-12-18T04:11:35.374Z,23.05
2022-12-18T04:14:07.324Z,25.17
2022-12-18T04:16:37.934Z,32.22
2022-12-18T04:19:08.137Z,47.17
2022-12-18T04:21:38.299Z,29.27
2022-12-18T04:24:08.545Z,28.85
2022-12-18T04:26:39.495Z,32.75
2022-12-18T04:29:11.172Z,24.35
2022-12-18T04:31:41.294Z,35.15
2022-12-18T04:34:11.462Z,22.42
2022-12-18T04:36:41.655Z,29.88
2022-12-18T04:39:12.110Z,24.33
2022-12-18T04:41:42.424Z,21.63
2022-12-18T04:44:12.650Z,38.67
2022-12-18T04:46:42.968Z,24.13
2022-12-18T04:49:13.661Z,32.33
2022-12-18T04:51:43.785Z,21.08
2022-12-18T04:54:13.920Z,32.30
2022-12-18T04:56:44.048Z,22.60
2022-12-18T04:59:14.373Z,21.50
2022-12-18T05:01:44.712Z,34.33
2022-12-18T05:04:15.262Z,25.77
2022-12-18T05:06:45.433Z,39.05
2022-12-18T05:09:15.753Z,24.73
2022-12-18T05:11:45.991Z,24.55
2022-12-18T05:14:16.661Z,24.48
2022-12-18T05:16:46.862Z,32.13
2022-12-18T05:19:17.078Z,33.40
2022-12-18T05:21:47.265Z,36.30
2022-12-18T05:24:17.454Z,30.88
2022-12-18T05:26:47.825Z,36.20
2022-12-18T05:29:18.098Z,29.98
2022-12-18T05:31:48.286Z,26.27
2022-12-18T05:34:18.590Z,30.27
2022-12-18T05:36:48.788Z,23.02
2022-12-18T05:39:18.921Z,42.85
2022-12-18T05:41:49.032Z,32.92
2022-12-18T05:44:19.086Z,26.35
2022-12-18T05:46:49.394Z,44.17
2022-12-18T05:49:19.557Z,35.63
2022-12-18T05:51:50.916Z,35.20
2022-12-18T05:54:21.044Z,26.58
2022-12-18T05:56:51.251Z,33.53
2022-12-18T05:59:21.430Z,33.13
2022-12-18T06:01:51.770Z,24.90
2022-12-18T06:04:22.072Z,32.13
2022-12-18T06:06:52.170Z,28.67
2022-12-18T06:09:22.318Z,21.80
2022-12-18T06:11:53.786Z,62.42
2022-12-18T06:14:24.013Z,41.25
2022-12-18T06:16:54.165Z,29.65
2022-12-18T06:19:24.370Z,40.80
2022-12-18T06:21:54.533Z,28.73
2022-12-18T06:24:24.625Z,23.88
2022-12-18T06:26:54.718Z,25.25
2022-12-18T06:29:24.879Z,24.92
2022-12-18T06:31:55.010Z,30.08
2022-12-18T06:34:25.357Z,30.02
2022-12-18T06:36:55.492Z,30.10
2022-12-18T06:39:26.029Z,37.25
2022-12-18T06:41:56.515Z,29.45
2022-12-18T06:44:26.750Z,27.50
2022-12-18T06:46:56.991Z,25.52
2022-12-18T06:49:30.403Z,26.85
2022-12-18T06:52:01.063Z,38.75
2022-12-18T06:54:33.537Z,34.05
2022-12-18T06:57:03.834Z,23.52
2022-12-18T06:59:34.017Z,35.70
2022-12-18T07:02:04.370Z,28.35
2022-12-18T07:04:34.707Z,29.60
2022-12-18T07:07:06.652Z,29.45
2022-12-18T07:09:39.064Z,20.38
2022-12-18T07:12:09.651Z,25.25
2022-12-18T07:14:42.565Z,31.55
2022-12-18T07:17:12.800Z,25.63
2022-12-18T07:19:42.910Z,38.72
2022-12-18T07:22:13.110Z,42.75
2022-12-18T07:24:43.257Z,25.10
2022-12-18T07:27:13.355Z,24.38
2022-12-18T07:29:43.542Z,29.08
2022-12-18T07:32:13.787Z,37.78
2022-12-18T07:34:44.870Z,36.20
2022-12-18T07:37:15.005Z,36.65
2022-12-18T07:39:45.589Z,29.00
2022-12-18T07:42:31.720Z,30.10
2022-12-18T07:45:02.971Z,30.88
2022-12-18T07:47:35.893Z,32.75
2022-12-18T07:50:06.675Z,31.45
2022-12-18T07:52:36.903Z,31.90
2022-12-18T07:55:07.395Z,25.60
2022-12-18T07:57:57.648Z,24.55
2022-12-18T08:00:27.955Z,33.67
2022-12-18T08:02:58.721Z,34.53
2022-12-18T08:05:29.547Z,30.85
2022-12-18T08:07:59.613Z,30.52
2022-12-18T08:10:29.787Z,34.95
2022-12-18T08:13:04.603Z,30.75
2022-12-18T08:15:35.153Z,39.92
2022-12-18T08:18:06.541Z,44.97
2022-12-18T08:20:39.224Z,24.58
2022-12-18T08:23:09.738Z,37.03
2022-12-18T08:25:39.893Z,25.95
2022-12-18T08:28:10.091Z,24.40
2022-12-18T08:30:40.384Z,29.77
2022-12-18T08:33:10.631Z,28.67
2022-12-18T08:35:45.557Z,44.28
2022-12-18T08:38:16.290Z,30.10
2022-12-18T08:40:46.730Z,26.20
2022-12-18T08:43:35.262Z,37.13
2022-12-18T08:46:05.537Z,34.47
2022-12-18T08:48:35.834Z,51.53
2022-12-18T08:51:06.286Z,37.92
2022-12-18T08:53:37.622Z,30.17
2022-12-18T08:56:08.876Z,34.30
2022-12-18T08:58:39.138Z,40.80
2022-12-18T09:01:11.710Z,27.20
2022-12-18T09:03:42.381Z,29.65
2022-12-18T09:06:16.852Z,34.90
2022-12-18T09:08:47.112Z,26.10
2022-12-18T09:11:23.047Z,48.08
2022-12-18T09:13:54.973Z,43.00
2022-12-18T09:16:31.633Z,42.97
2022-12-18T09:19:04.562Z,47.33
2022-12-18T09:21:36.887Z,35.70
2022-12-18T09:24:08.852Z,36.15
2022-12-18T09:26:39.386Z,37.08
2022-12-18T09:29:10.538Z,50.88
2022-12-18T09:31:40.827Z,34.83
2022-12-18T09:34:11.112Z,41.03
2022-12-18T09:36:41.208Z,30.98
2022-12-18T09:39:11.394Z,57.42
2022-12-18T09:41:46.864Z,35.33
2022-12-18T09:44:20.589Z,32.30
2022-12-18T09:47:18.537Z,47.35
2022-12-18T09:49:53.912Z,30.00
2022-12-18T09:52:32.825Z,42.83
2022-12-18T09:55:37.225Z,33.83
2022-12-18T09:58:16.676Z,25.40
2022-12-18T10:00:50.457Z,27.90
2022-12-18T10:03:20.820Z,25.85
2022-12-18T10:05:57.042Z,43.85
2022-12-18T10:08:45.641Z,30.35
2022-12-18T10:11:22.610Z,34.30
2022-12-18T10:14:04.528Z,31.63
2022-12-18T10:16:49.194Z,30.80
2022-12-18T10:19:50.498Z,43.65
2022-12-18T10:22:53.455Z,25.92
2022-12-18T10:25:29.156Z,60.53
2022-12-18T10:28:09.196Z,42.75
2022-12-18T10:30:41.237Z,49.85
2022-12-18T10:33:23.813Z,30.58
2022-12-18T10:35:55.382Z,40.15
2022-12-18T10:38:28.370Z,28.83
2022-12-18T10:40:58.596Z,34.05
2022-12-18T10:43:37.191Z,25.88
2022-12-18T10:46:13.004Z,32.17
2022-12-18T10:48:49.319Z,33.88
2022-12-18T10:51:34.729Z,30.00
2022-12-18T10:54:07.977Z,27.25
2022-12-18T10:56:40.143Z,25.13
2022-12-18T10:59:14.178Z,27.52
2022-12-18T11:01:53.999Z,39.72
2022-12-18T11:04:37.695Z,38.53
2022-12-18T11:07:10.157Z,30.05
2022-12-18T11:09:41.795Z,34.40
2022-12-18T11:12:12.029Z,26.60
2022-12-18T11:14:52.889Z,30.77
2022-12-18T11:17:36.878Z,33.65
2022-12-18T11:20:28.482Z,44.17
2022-12-18T11:23:04.417Z,26.63
2022-12-18T11:25:36.186Z,27.63
2022-12-18T11:28:43.436Z,30.58
2022-12-18T11:31:22.413Z,58.00
2022-12-18T11:34:34.277Z,44.47
2022-12-18T11:37:05.613Z,33.63
2022-12-18T11:39:51.524Z,39.25
2022-12-18T11:42:29.217Z,51.17
2022-12-18T11:45:19.706Z,36.17
2022-12-18T11:48:08.103Z,37.78
2022-12-18T11:50:49.577Z,37.58
2022-12-18T11:53:20.549Z,40.15
2022-12-18T11:56:05.044Z,49.08
2022-12-18T11:58:41.405Z,36.13
2022-12-18T12:01:29.361Z,38.28
2022-12-18T12:04:08.207Z,48.08
2022-12-18T12:06:51.016Z,36.85
2022-12-18T12:09:49.467Z,39.63
2022-12-18T12:12:49.130Z,40.95
2022-12-18T12:16:04.604Z,60.25
2022-12-18T12:18:46.549Z,39.92
2022-12-18T12:21:38.043Z,35.03
2022-12-18T12:24:28.940Z,48.25
2022-12-18T12:27:22.746Z,47.13
2022-12-18T12:30:02.010Z,39.75
2022-12-18T12:32:43.956Z,32.13
2022-12-18T12:35:56.436Z,31.80
2022-12-18T12:38:49.832Z,27.33
2022-12-18T12:41:50.136Z,35.80
2022-12-18T12:44:34.878Z,33.72
2022-12-18T12:47:20.243Z,34.13
2022-12-18T12:49:51.937Z,33.72
2022-12-18T12:52:45.550Z,25.38
2022-12-18T12:55:23.757Z,32.63
2022-12-18T12:58:09.423Z,33.92
2022-12-18T13:01:06.038Z,34.30
2022-12-18T13:03:49.512Z,35.10
2022-12-18T13:06:47.909Z,31.27
2022-12-18T13:09:18.308Z,41.92
2022-12-18T13:12:07.932Z,37.38
2022-12-18T13:14:41.597Z,35.13
2022-12-18T13:17:32.243Z,37.05
2022-12-18T13:20:15.447Z,48.42
2022-12-18T13:22:50.247Z,41.25
2022-12-18T13:25:37.698Z,40.80
2022-12-18T13:28:14.386Z,45.30
2022-12-18T13:30:55.667Z,29.80
2022-12-18T13:33:30.784Z,31.25
2022-12-18T13:36:15.981Z,48.97
2022-12-18T13:38:46.964Z,40.60
2022-12-18T13:41:25.537Z,34.78
2022-12-18T13:43:59.985Z,53.90
2022-12-18T13:46:43.122Z,46.38
2022-12-18T13:49:13.450Z,33.95
2022-12-18T13:51:54.088Z,29.25
2022-12-18T13:54:36.503Z,40.08
2022-12-18T13:57:26.720Z,26.63
2022-12-18T13:59:58.417Z,35.22
2022-12-18T14:02:29.697Z,52.97
2022-12-18T14:05:00.453Z,47.15
2022-12-18T14:07:38.104Z,37.03
2022-12-18T14:13:10.941Z,32.20
2022-12-18T14:15:45.469Z,40.95
2022-12-18T14:18:15.620Z,37.92
2022-12-18T14:20:50.741Z,35.22
2022-12-18T14:26:21.921Z,29.23
2022-12-18T14:28:52.693Z,39.95
2022-12-18T14:31:25.932Z,37.97
2022-12-18T14:33:56.944Z,39.63
2022-12-18T14:36:30.602Z,37.67
2022-12-18T14:39:02.228Z,41.67
2022-12-18T14:41:34.278Z,45.20
2022-12-18T14:44:08.258Z,43.35
2022-12-18T14:46:41.224Z,40.50
2022-12-18T14:49:24.196Z,68.78
2022-12-18T14:51:56.676Z,50.00
2022-12-18T14:54:29.290Z,53.10
2022-12-18T14:57:05.221Z,55.05
2022-12-18T14:59:35.435Z,47.38
2022-12-18T15:02:22.055Z,62.60
2022-12-18T15:05:14.280Z,55.90
2022-12-18T15:07:50.875Z,59.67
2022-12-18T15:10:30.440Z,60.15
2022-12-18T15:13:01.736Z,62.95
2022-12-18T15:15:35.310Z,90.18
2022-12-18T15:18:14.426Z,69.55
2022-12-18T15:20:47.478Z,55.53
2022-12-18T15:23:37.832Z,47.55
2022-12-18T15:26:11.664Z,58.42
2022-12-18T15:28:51.242Z,64.53
2022-12-18T15:31:25.519Z,87.78
2022-12-18T15:33:55.754Z,59.78
2022-12-18T15:36:37.496Z,72.65
2022-12-18T15:39:07.890Z,57.20
2022-12-18T15:41:38.048Z,48.33
2022-12-18T15:44:25.846Z,61.15
2022-12-18T15:46:59.831Z,39.40
2022-12-18T15:49:30.018Z,53.10
2022-12-18T15:52:01.183Z,50.58
2022-12-18T15:54:50.106Z,77.80
2022-12-18T15:57:26.286Z,46.33
2022-12-18T16:00:00.762Z,54.20
2022-12-18T16:02:31.130Z,58.83
2022-12-18T16:05:01.936Z,42.20
2022-12-18T16:07:33.317Z,44.35
2022-12-18T16:10:04.641Z,42.63
2022-12-18T16:12:35.375Z,42.83
2022-12-18T16:15:07.736Z,59.90
2022-12-18T16:17:39.284Z,47.55
2022-12-18T16:20:16.191Z,44.22
2022-12-18T16:22:48.292Z,42.20
2022-12-18T16:25:27.470Z,47.78
2022-12-18T16:27:57.983Z,60.53
2022-12-18T16:30:33.089Z,35.10
2022-12-18T16:33:11.712Z,39.58
2022-12-18T16:35:41.926Z,44.60
2022-12-18T16:38:13.124Z,40.90
2022-12-18T16:41:03.217Z,41.97
2022-12-18T16:43:33.422Z,42.65
2022-12-18T16:46:04.349Z,39.28
2022-12-18T16:48:37.535Z,54.72
2022-12-18T16:51:07.828Z,40.65
2022-12-18T16:53:38.247Z,62.20
2022-12-18T16:56:08.649Z,148.82
2022-12-18T16:58:38.889Z,69.93
2022-12-18T17:01:12.130Z,67.25
2022-12-18T17:03:43.689Z,55.35
2022-12-18T17:06:15.441Z,55.13
2022-12-18T17:08:47.166Z,49.75
2022-12-18T17:11:17.334Z,71.35
2022-12-18T17:13:47.543Z,74.15
2022-12-18T17:16:17.891Z,76.15
2022-12-18T17:18:49.083Z,65.50
2022-12-18T17:21:19.572Z,63.45
2022-12-18T17:23:49.946Z,77.03
2022-12-18T17:26:22.549Z,61.58
2022-12-18T17:28:53.078Z,36.55
2022-12-18T17:31:26.338Z,37.47
2022-12-18T17:33:57.432Z,53.88
2022-12-18T17:36:29.244Z,44.65
2022-12-18T17:39:01.656Z,55.58
2022-12-18T17:41:32.031Z,55.42
2022-12-18T17:44:05.719Z,45.50
2022-12-18T17:46:35.951Z,55.13
2022-12-18T17:49:06.199Z,113.18
2022-12-18T17:51:36.455Z,121.22
2022-12-18T17:54:07.015Z,54.00
2022-12-18T17:56:37.339Z,60.05
2022-12-18T17:59:07.803Z,64.22
2022-12-18T18:01:44.143Z,51.22
2022-12-18T18:04:15.882Z,60.83
2022-12-18T18:06:47.690Z,65.47
2022-12-18T18:09:17.840Z,57.95
2022-12-18T18:12:06.487Z,76.40
2022-12-18T18:14:36.732Z,50.20
2022-12-18T18:17:07.302Z,53.72
2022-12-18T18:19:37.579Z,65.97
2022-12-18T18:22:11.548Z,66.00
2022-12-18T18:24:43.745Z,51.40
2022-12-18T18:27:13.871Z,67.90
2022-12-18T18:29:44.421Z,60.83
2022-12-18T18:32:14.671Z,61.83
2022-12-18T18:34:44.952Z,82.80
2022-12-18T18:37:15.169Z,83.57
2022-12-18T18:39:45.437Z,49.58
2022-12-18T18:42:15.690Z,67.88
2022-12-18T18:44:48.969Z,59.13
2022-12-18T18:47:19.364Z,62.60
2022-12-18T18:49:49.578Z,58.92
2022-12-18T18:52:19.770Z,61.45
2022-12-18T18:55:11.607Z,81.97
2022-12-18T18:57:40.053Z,61.70
2022-12-18T19:00:10.947Z,49.08
2022-12-18T19:02:41.541Z,113.10
2022-12-18T19:05:11.982Z,56.55
2022-12-18T19:07:42.436Z,55.88
2022-12-18T19:10:12.643Z,87.28
2022-12-18T19:13:02.743Z,53.05
2022-12-18T19:15:34.453Z,73.72
2022-12-18T19:18:04.808Z,55.03
2022-12-18T19:20:35.109Z,69.18
2022-12-18T19:23:06.600Z,110.25
2022-12-18T19:25:42.177Z,105.75
2022-12-18T19:28:21.262Z,82.57
2022-12-18T19:30:57.587Z,68.45
2022-12-18T19:33:43.249Z,56.42
2022-12-18T19:36:25.630Z,72.93
2022-12-18T19:38:59.636Z,66.65
2022-12-18T19:41:31.183Z,63.10
2022-12-18T19:44:07.570Z,72.32
2022-12-18T19:46:41.623Z,70.50
2022-12-18T19:49:16.757Z,66.45
2022-12-18T19:51:50.505Z,55.73
2022-12-18T19:54:20.930Z,60.90
2022-12-18T19:56:53.041Z,68.43
2022-12-18T19:59:23.864Z,63.58
2022-12-18T20:01:54.478Z,50.83
2022-12-18T20:04:24.832Z,75.88
2022-12-18T20:06:55.440Z,55.30
2022-12-18T20:09:25.768Z,67.32
2022-12-18T20:11:56.413Z,72.20
2022-12-18T20:14:26.609Z,88.68
2022-12-18T20:16:56.842Z,52.60
2022-12-18T20:19:30.058Z,65.13
2022-12-18T20:22:00.344Z,74.15
2022-12-18T20:24:30.513Z,57.30
2022-12-18T20:27:00.721Z,74.57
2022-12-18T20:29:31.032Z,51.85
2022-12-18T20:32:01.387Z,64.30
2022-12-18T20:34:31.740Z,55.92
2022-12-18T20:37:02.172Z,55.95
2022-12-18T20:39:32.846Z,65.82
2022-12-18T20:42:04.477Z,120.50
2022-12-18T20:44:34.713Z,61.90
2022-12-18T20:47:08.429Z,76.13
2022-12-18T20:49:39.569Z,80.35
2022-12-18T20:52:15.951Z,76.22
2022-12-18T20:54:46.213Z,87.30
2022-12-18T20:57:16.362Z,60.03
2022-12-18T20:59:48.533Z,89.88
2022-12-18T21:02:18.996Z,82.95
2022-12-18T21:04:49.498Z,121.72
2022-12-18T21:07:19.926Z,72.50
2022-12-18T21:09:50.303Z,76.53
2022-12-18T21:12:40.283Z,72.00
2022-12-18T21:15:17.783Z,49.83
2022-12-18T21:17:48.582Z,66.88
2022-12-18T21:20:18.908Z,61.00
2022-12-18T21:22:49.613Z,53.30
2022-12-18T21:25:19.826Z,88.18
2022-12-18T21:27:50.010Z,46.47
2022-12-18T21:30:20.528Z,53.58
2022-12-18T21:32:51.018Z,70.03
2022-12-18T21:35:21.228Z,59.08
2022-12-18T21:37:53.486Z,56.55
2022-12-18T21:40:24.078Z,92.53
2022-12-18T21:43:14.955Z,106.70
2022-12-18T21:45:48.047Z,108.80
2022-12-18T21:48:18.288Z,52.25
2022-12-18T21:50:48.398Z,98.97
2022-12-18T21:53:18.551Z,101.20
2022-12-18T21:55:57.988Z,106.30
2022-12-18T21:58:28.213Z,73.22
2022-12-18T22:00:58.415Z,84.75
2022-12-18T22:03:28.761Z,73.65
2022-12-18T22:06:07.562Z,67.35
2022-12-18T22:08:42.618Z,56.03
2022-12-18T22:11:14.219Z,84.88
2022-12-18T22:13:45.903Z,74.00
2022-12-18T22:16:16.082Z,113.05
2022-12-18T22:18:46.308Z,88.90
2022-12-18T22:21:29.642Z,74.28
2022-12-18T22:24:02.514Z,88.07
2022-12-18T22:26:39.841Z,106.30
2022-12-18T22:29:42.819Z,72.53
2022-12-18T22:32:29.087Z,101.28
2022-12-18T22:35:07.305Z,99.63
2022-12-18T22:37:39.609Z,132.68
2022-12-18T22:40:23.926Z,94.75
2022-12-18T22:42:56.344Z,61.67
2022-12-18T22:45:27.059Z,79.63
2022-12-18T22:47:57.504Z,86.07
2022-12-18T22:50:27.820Z,101.90
2022-12-18T22:52:58.151Z,90.13
2022-12-18T22:55:28.297Z,92.75
2022-12-18T22:57:59.729Z,72.38
2022-12-18T23:00:30.681Z,113.75
2022-12-18T23:03:04.497Z,77.10
2022-12-18T23:05:37.405Z,74.22
2022-12-18T23:08:07.584Z,65.25
2022-12-18T23:10:38.981Z,101.55
2022-12-18T23:13:12.295Z,46.53
2022-12-18T23:15:43.032Z,98.57
2022-12-18T23:18:13.214Z,72.70
2022-12-18T23:20:43.637Z,101.10
2022-12-18T23:23:14.625Z,131.18
2022-12-18T23:25:45.289Z,89.43
2022-12-18T23:28:16.919Z,75.15
2022-12-18T23:30:47.067Z,77.00
2022-12-18T23:33:17.183Z,118.43
2022-12-18T23:35:47.438Z,69.32
2022-12-18T23:38:17.683Z,82.32
2022-12-18T23:40:47.934Z,84.60
2022-12-18T23:43:19.176Z,70.18
2022-12-18T23:45:55.399Z,96.63
2022-12-18T23:48:26.330Z,65.40
2022-12-18T23:50:56.938Z,105.78
2022-12-18T23:53:27.050Z,56.42
2022-12-18T23:55:57.239Z,92.28
2022-12-18T23:58:29.759Z,93.25
